createdAt,value
2023-06-18T18:13:53.336Z,4.07
2023-06-18T18:16:23.418Z,2.95
2023-06-18T18:18:52.080Z,3.67
2023-06-18T18:21:19.806Z,4.07
2023-06-18T18:23:47.600Z,4.28
2023-06-18T18:26:15.504Z,3.20
2023-06-18T18:28:43.303Z,3.60
2023-06-18T18:31:11.113Z,3.92
2023-06-18T18:33:39.042Z,3.63
2023-06-18T18:36:07.748Z,3.65
2023-06-18T18:38:35.777Z,3.25
2023-06-18T18:41:03.652Z,3.70
2023-06-18T18:43:49.888Z,3.53
2023-06-18T18:46:22.556Z,3.30
2023-06-18T18:48:50.341Z,4.07
2023-06-18T18:51:20.697Z,4.57
2023-06-18T18:53:51.569Z,3.70
2023-06-18T18:56:19.399Z,3.55
2023-06-18T18:58:47.179Z,3.58
2023-06-18T19:01:14.992Z,4.00
2023-06-18T19:08:09.483Z,3.42
2023-06-18T19:10:40.173Z,5.25
2023-06-18T19:13:11.831Z,3.55
2023-06-18T19:15:46.361Z,4.20
2023-06-18T19:18:27.353Z,3.83
2023-06-18T19:20:55.490Z,3.92
2023-06-18T19:23:26.761Z,3.92
2023-06-18T19:25:54.571Z,4.35
2023-06-18T19:28:28.865Z,3.03
2023-06-18T19:30:56.881Z,4.15
2023-06-18T19:33:24.679Z,3.92
2023-06-18T19:35:55.150Z,3.40
2023-06-18T19:38:27.294Z,3.30
2023-06-18T19:40:55.119Z,2.47
2023-06-18T19:43:22.877Z,3.05
2023-06-18T19:45:51.436Z,2.55
2023-06-18T19:48:19.323Z,3.00
2023-06-18T19:50:47.353Z,2.95
2023-06-18T19:53:15.371Z,2.58
2023-06-18T19:55:46.208Z,2.78
2023-06-18T19:58:14.061Z,3.05
2023-06-18T20:00:42.022Z,2.38
2023-06-18T20:03:09.877Z,2.90
2023-06-18T20:05:37.740Z,2.72
2023-06-18T20:08:05.727Z,2.72
2023-06-18T20:10:34.110Z,2.80
2023-06-18T20:13:01.989Z,2.90
2023-06-18T20:15:31.001Z,3.08
2023-06-18T20:17:59.123Z,2.92
2023-06-18T20:20:27.123Z,2.80
2023-06-18T20:23:07.181Z,3.20
2023-06-18T20:26:04.179Z,3.25
2023-06-18T20:28:56.288Z,3.25
2023-06-18T20:31:28.734Z,3.00
2023-06-18T20:33:58.934Z,3.33
2023-06-18T20:36:26.862Z,3.10
2023-06-18T20:38:54.678Z,3.35
2023-06-18T20:41:22.490Z,2.60
2023-06-18T20:43:50.292Z,3.17
2023-06-18T20:46:18.472Z,2.53
2023-06-18T20:48:48.632Z,2.90
2023-06-18T20:51:16.429Z,2.50
2023-06-18T20:53:44.246Z,3.00
2023-06-18T20:56:12.074Z,2.67
2023-06-18T20:58:41.859Z,2.75
2023-06-18T21:01:09.706Z,2.70
2023-06-18T21:03:42.882Z,2.42
2023-06-18T21:06:12.677Z,2.58
2023-06-18T21:08:40.972Z,2.85
2023-06-18T21:11:08.923Z,2.42
2023-06-18T21:13:37.103Z,2.58
2023-06-18T21:16:05.147Z,2.33
2023-06-18T21:18:32.853Z,2.30
2023-06-18T21:21:00.614Z,2.45
2023-06-18T21:23:28.332Z,2.10
2023-06-18T21:25:59.699Z,2.20
2023-06-18T21:28:29.237Z,2.40
2023-06-18T21:30:57.054Z,2.28
2023-06-18T21:33:24.963Z,2.50
2023-06-18T21:35:52.763Z,2.42
2023-06-18T21:38:20.496Z,2.25
2023-06-18T21:40:48.563Z,2.20
2023-06-18T21:43:16.521Z,2.65
2023-06-18T21:45:44.511Z,2.75
2023-06-18T21:48:12.653Z,2.45
2023-06-18T21:50:40.615Z,2.42
2023-06-18T21:53:08.407Z,2.40
2023-06-18T21:55:36.151Z,2.50
2023-06-18T21:58:04.005Z,2.75
2023-06-18T22:00:34.261Z,2.63
2023-06-18T22:03:02.251Z,2.50
2023-06-18T22:05:31.814Z,2.70
2023-06-18T22:08:03.427Z,3.45
2023-06-18T22:10:37.319Z,3.25
2023-06-18T22:13:05.194Z,3.10
2023-06-18T22:15:32.865Z,3.40
2023-06-18T22:18:00.673Z,3.00
2023-06-18T22:20:28.551Z,2.95
2023-06-18T22:22:56.485Z,3.35
2023-06-18T22:25:24.273Z,3.00
2023-06-18T22:27:52.072Z,2.47
2023-06-18T22:30:19.883Z,3.00
2023-06-18T22:32:50.000Z,3.17
2023-06-18T22:35:18.245Z,3.17
2023-06-18T22:37:46.250Z,3.15
2023-06-18T22:40:14.234Z,2.90
2023-06-18T22:42:42.000Z,2.60
2023-06-18T22:45:10.163Z,2.78
2023-06-18T22:47:38.263Z,2.72
2023-06-18T22:50:06.495Z,2.92
2023-06-18T22:52:34.302Z,2.97
2023-06-18T22:55:02.096Z,2.70
2023-06-18T22:57:31.151Z,2.40
2023-06-18T22:59:59.026Z,3.00
2023-06-18T23:02:27.118Z,3.05
2023-06-18T23:04:55.077Z,2.90
2023-06-18T23:07:22.972Z,2.47
2023-06-18T23:09:50.899Z,2.70
2023-06-18T23:12:18.705Z,2.58
2023-06-18T23:14:46.448Z,2.72
2023-06-18T23:17:14.376Z,2.80
2023-06-18T23:19:42.800Z,2.80
2023-06-18T23:22:11.349Z,2.60
2023-06-18T23:24:39.335Z,2.88
2023-06-18T23:27:07.522Z,2.40
2023-06-18T23:29:38.936Z,3.38
2023-06-18T23:32:10.093Z,2.40
2023-06-18T23:34:42.513Z,2.55
2023-06-18T23:37:12.618Z,2.75
2023-06-18T23:39:40.560Z,2.50
2023-06-18T23:42:08.625Z,2.45
2023-06-18T23:44:36.505Z,2.65
2023-06-18T23:47:05.108Z,2.45
2023-06-18T23:49:33.025Z,2.67
2023-06-18T23:52:00.887Z,2.53
2023-06-18T23:54:29.572Z,3.15
2023-06-18T23:56:57.484Z,2.60
2023-06-18T23:59:25.954Z,2.80
